Time;durP1;ratioP1;P1;durP2;ratioP2;P2;SDS_P1;SDS_P2;PMS_P1;PMS_P2;Temp;Humidity;BMP_temperature;BMP_pressure;BME280_temperature;BME280_humidity;BME280_pressure;Samples;Min_cycle;Max_cycle;Signal;HPM_P1;HPM_P2
2020/12/28 00:01:10;;;;;;;0.00;0.00;;;6.30;90.00;;;;;;4977761;28;20150;-86
2020/12/28 00:03:36;;;;;;;0.97;0.27;;;6.30;90.00;;;;;;4979007;28;20025;-88
2020/12/28 00:06:02;;;;;;;0.00;0.00;;;6.40;90.00;;;;;;4982188;28;20456;-87
2020/12/28 00:08:29;;;;;;;0.00;0.00;;;6.40;90.00;;;;;;4998571;28;20048;-87
2020/12/28 00:10:55;;;;;;;0.00;0.00;;;6.30;90.00;;;;;;4996663;28;20041;-88
2020/12/28 00:13:21;;;;;;;0.00;0.00;;;6.30;90.00;;;;;;4983257;28;20121;-87
2020/12/28 00:15:48;;;;;;;0.00;0.00;;;6.30;90.00;;;;;;4999426;28;20061;-87
2020/12/28 00:18:14;;;;;;;0.20;0.07;;;6.30;90.00;;;;;;4996238;28;20083;-86
2020/12/28 00:20:40;;;;;;;0.10;0.00;;;6.30;90.00;;;;;;4979245;28;20042;-86
2020/12/28 00:23:07;;;;;;;0.33;0.00;;;6.30;90.00;;;;;;4988022;28;20022;-89
2020/12/28 00:25:33;;;;;;;0.00;0.00;;;6.30;90.00;;;;;;4997436;28;20033;-86
2020/12/28 00:28:00;;;;;;;0.00;0.00;;;6.30;90.00;;;;;;4992057;28;20042;-87
2020/12/28 00:30:26;;;;;;;0.00;0.00;;;6.30;90.00;;;;;;4987396;28;20054;-87
2020/12/28 00:32:53;;;;;;;0.00;0.00;;;6.30;90.00;;;;;;4968706;28;20179;-86
2020/12/28 00:35:19;;;;;;;0.00;0.00;;;6.20;90.00;;;;;;4970538;28;20332;-86
2020/12/28 00:37:45;;;;;;;0.00;0.00;;;6.20;90.00;;;;;;4979587;28;20030;-86
2020/12/28 00:40:12;;;;;;;0.00;0.00;;;6.20;90.10;;;;;;4977082;28;20436;-88
2020/12/28 00:42:38;;;;;;;0.57;0.20;;;6.20;90.10;;;;;;4956904;28;20023;-86
2020/12/28 00:45:11;;;;;;;0.20;0.10;;;6.20;90.10;;;;;;4972759;28;20418;-86
2020/12/28 00:47:37;;;;;;;6.13;0.40;;;6.20;90.10;;;;;;4970524;28;20027;-87
2020/12/28 00:50:07;;;;;;;0.13;0.00;;;6.20;90.10;;;;;;4974414;28;20038;-88
2020/12/28 00:52:33;;;;;;;0.10;0.00;;;6.20;90.10;;;;;;4959294;28;20039;-87
2020/12/28 00:55:00;;;;;;;0.00;0.00;;;6.20;90.00;;;;;;4976218;28;20039;-86
2020/12/28 00:57:26;;;;;;;5.60;0.27;;;6.30;90.00;;;;;;4972500;28;20030;-87
2020/12/28 00:59:53;;;;;;;0.00;0.00;;;6.30;90.00;;;;;;4971226;28;20429;-87
2020/12/28 01:02:19;;;;;;;0.00;0.00;;;6.30;90.00;;;;;;4955325;28;20562;-87
2020/12/28 01:04:45;;;;;;;0.00;0.00;;;6.30;90.00;;;;;;4958926;28;20326;-86
2020/12/28 01:07:14;;;;;;;0.00;0.00;;;6.30;90.00;;;;;;4959975;28;20031;-87
2020/12/28 01:09:40;;;;;;;0.00;0.00;;;6.30;89.90;;;;;;4968480;28;20023;-88
2020/12/28 01:12:07;;;;;;;0.00;0.00;;;6.30;89.80;;;;;;4975476;28;20043;-88
2020/12/28 01:14:33;;;;;;;0.00;0.00;;;6.30;89.80;;;;;;4966328;28;20031;-87
2020/12/28 01:16:59;;;;;;;0.30;0.00;;;6.30;89.80;;;;;;4952263;28;20047;-86
2020/12/28 01:19:26;;;;;;;0.00;0.00;;;6.30;89.90;;;;;;4967251;28;20429;-87
2020/12/28 01:21:52;;;;;;;0.00;0.00;;;6.30;89.90;;;;;;4973292;28;20449;-86
2020/12/28 01:24:19;;;;;;;0.00;0.00;;;6.30;89.90;;;;;;4974543;28;20034;-86
2020/12/28 01:26:45;;;;;;;0.00;0.00;;;6.30;90.00;;;;;;4975076;28;20536;-88
2020/12/28 01:29:12;;;;;;;0.00;0.00;;;6.20;90.00;;;;;;4961632;28;20057;-86
2020/12/28 01:31:38;;;;;;;0.00;0.00;;;6.20;90.00;;;;;;4976135;28;20031;-87
2020/12/28 01:34:05;;;;;;;0.23;0.10;;;6.20;90.00;;;;;;4975110;28;20031;-87
2020/12/28 01:36:31;;;;;;;0.00;0.00;;;6.20;90.00;;;;;;4968659;28;20034;-87
2020/12/28 01:38:57;;;;;;;0.00;0.00;;;6.20;90.00;;;;;;4975355;28;20038;-88
2020/12/28 01:41:24;;;;;;;0.00;0.00;;;6.20;90.00;;;;;;4973824;28;20027;-88
2020/12/28 01:43:50;;;;;;;0.47;0.13;;;6.20;90.00;;;;;;4975749;28;20030;-88
2020/12/28 01:46:17;;;;;;;0.00;0.00;;;6.20;90.00;;;;;;4977795;28;20030;-87
2020/12/28 01:48:43;;;;;;;0.00;0.00;;;6.20;90.00;;;;;;4978622;28;20027;-89
2020/12/28 01:51:10;;;;;;;0.00;0.00;;;6.20;90.00;;;;;;4956292;28;20035;-87
2020/12/28 01:53:36;;;;;;;8.87;0.37;;;6.20;90.00;;;;;;4972401;28;20038;-89
2020/12/28 01:56:04;;;;;;;0.00;0.00;;;6.20;90.00;;;;;;4974007;28;20043;-88
2020/12/28 01:58:31;;;;;;;0.00;0.00;;;6.20;90.00;;;;;;4975852;28;20034;-86
2020/12/28 02:00:58;;;;;;;0.00;0.00;;;6.20;90.00;;;;;;4969736;28;20035;-87
2020/12/28 02:03:25;;;;;;;0.00;0.00;;;6.10;90.00;;;;;;4970681;28;20019;-86
2020/12/28 02:05:52;;;;;;;0.13;0.07;;;6.10;90.00;;;;;;4958176;28;20337;-87
2020/12/28 02:08:19;;;;;;;0.00;0.00;;;6.10;90.00;;;;;;4974881;28;20035;-87
2020/12/28 02:10:45;;;;;;;0.00;0.00;;;6.10;90.00;;;;;;4973973;28;20039;-88
2020/12/28 02:13:12;;;;;;;0.00;0.00;;;6.10;90.00;;;;;;4975284;28;20039;-87
2020/12/28 02:15:38;;;;;;;0.00;0.00;;;6.10;90.00;;;;;;4976341;28;20039;-86
2020/12/28 02:18:04;;;;;;;0.00;0.00;;;6.10;90.00;;;;;;4942496;28;20039;-87
2020/12/28 02:20:31;;;;;;;0.00;0.00;;;6.10;90.00;;;;;;4974486;28;20034;-88
2020/12/28 02:22:57;;;;;;;0.10;0.00;;;6.10;90.00;;;;;;4970435;28;20031;-87
2020/12/28 02:25:23;;;;;;;0.00;0.00;;;6.00;90.00;;;;;;4989638;28;20027;-86
2020/12/28 02:27:50;;;;;;;0.10;0.00;;;6.00;90.00;;;;;;4988972;28;20068;-87
2020/12/28 02:30:16;;;;;;;0.37;0.17;;;6.00;90.10;;;;;;4991896;28;20026;-86
2020/12/28 02:32:43;;;;;;;0.00;0.00;;;5.90;90.10;;;;;;4994376;28;20027;-87
2020/12/28 02:35:09;;;;;;;0.00;0.00;;;5.90;90.10;;;;;;4992597;28;20034;-87
2020/12/28 02:37:35;;;;;;;0.00;0.00;;;5.90;90.20;;;;;;4991102;28;20038;-87
2020/12/28 02:40:02;;;;;;;0.00;0.00;;;5.80;90.20;;;;;;4987630;28;20038;-88
2020/12/28 02:42:28;;;;;;;1.80;0.10;;;5.80;90.20;;;;;;4992273;28;20328;-86
2020/12/28 02:44:54;;;;;;;0.00;0.00;;;5.80;90.20;;;;;;4994019;28;20027;-87
2020/12/28 02:47:21;;;;;;;0.20;0.07;;;5.80;90.20;;;;;;4993536;28;20034;-87
2020/12/28 02:49:47;;;;;;;0.00;0.00;;;5.70;90.20;;;;;;4987027;28;20033;-86
2020/12/28 02:52:13;;;;;;;0.00;0.00;;;5.70;90.20;;;;;;4996613;28;20043;-87
2020/12/28 02:54:40;;;;;;;0.00;0.00;;;5.70;90.30;;;;;;4987746;28;20030;-86
2020/12/28 02:57:06;;;;;;;0.00;0.00;;;5.70;90.30;;;;;;4995166;28;20096;-86
2020/12/28 02:59:32;;;;;;;0.00;0.00;;;5.60;90.30;;;;;;4994459;28;20038;-86
2020/12/28 03:01:59;;;;;;;0.00;0.00;;;5.60;90.30;;;;;;4989556;28;20366;-87
2020/12/28 03:04:25;;;;;;;0.00;0.00;;;5.60;90.30;;;;;;4976802;28;20429;-89
2020/12/28 03:06:51;;;;;;;0.00;0.00;;;5.60;90.30;;;;;;4978665;28;20018;-87
2020/12/28 03:09:18;;;;;;;0.00;0.00;;;5.60;90.40;;;;;;4997841;28;20126;-86
2020/12/28 03:11:45;;;;;;;1.60;0.30;;;5.60;90.30;;;;;;4995673;28;20028;-86
2020/12/28 03:14:11;;;;;;;0.00;0.00;;;5.60;90.30;;;;;;4993062;28;20022;-87
2020/12/28 03:16:38;;;;;;;0.00;0.00;;;5.60;90.30;;;;;;4991000;28;20041;-86
2020/12/28 03:19:04;;;;;;;0.00;0.00;;;5.60;90.30;;;;;;4976341;28;20042;-87
2020/12/28 03:21:30;;;;;;;0.00;0.00;;;5.60;90.30;;;;;;4995151;28;20030;-86
2020/12/28 03:23:57;;;;;;;0.00;0.00;;;5.50;90.30;;;;;;4979041;28;20041;-86
2020/12/28 03:26:23;;;;;;;0.00;0.00;;;5.50;90.20;;;;;;4997424;28;20022;-87
2020/12/28 03:28:49;;;;;;;0.00;0.00;;;5.50;90.20;;;;;;5000007;28;20062;-87
2020/12/28 03:31:16;;;;;;;0.00;0.00;;;5.50;90.20;;;;;;4995202;28;20034;-86
2020/12/28 03:33:43;;;;;;;0.00;0.00;;;5.50;90.20;;;;;;4996638;28;20437;-87
2020/12/28 03:36:09;;;;;;;0.00;0.00;;;5.50;90.20;;;;;;4992597;28;20341;-86
2020/12/28 03:38:35;;;;;;;0.00;0.00;;;5.50;90.20;;;;;;4979453;28;20340;-87
2020/12/28 03:41:02;;;;;;;0.00;0.00;;;5.50;90.20;;;;;;4995737;28;20053;-85
2020/12/28 03:43:28;;;;;;;0.00;0.00;;;5.50;90.20;;;;;;4977122;28;20039;-85
2020/12/28 03:45:54;;;;;;;0.00;0.00;;;5.50;90.20;;;;;;5000954;28;20061;-88
2020/12/28 03:48:21;;;;;;;0.00;0.00;;;5.50;90.30;;;;;;4994386;28;20030;-87
2020/12/28 03:50:47;;;;;;;0.00;0.00;;;5.50;90.20;;;;;;4982661;28;20027;-87
2020/12/28 03:53:13;;;;;;;0.50;0.10;;;5.40;90.20;;;;;;4991972;28;20440;-86
2020/12/28 03:55:40;;;;;;;0.00;0.00;;;5.40;90.20;;;;;;4995076;28;20043;-87
2020/12/28 03:58:06;;;;;;;0.00;0.00;;;5.40;90.20;;;;;;4996668;28;20030;-88
2020/12/28 04:00:32;;;;;;;0.00;0.00;;;5.40;90.30;;;;;;4993977;28;20030;-86
2020/12/28 04:02:59;;;;;;;0.00;0.00;;;5.30;90.30;;;;;;4997547;28;20022;-86
2020/12/28 04:05:25;;;;;;;0.00;0.00;;;5.30;90.30;;;;;;4967669;28;20047;-87
2020/12/28 04:07:51;;;;;;;0.00;0.00;;;5.30;90.30;;;;;;4981502;28;20042;-88
2020/12/28 04:10:18;;;;;;;0.00;0.00;;;5.30;90.30;;;;;;4958435;28;20034;-87
2020/12/28 04:12:44;;;;;;;0.00;0.00;;;5.30;90.30;;;;;;4997991;28;20026;-87
2020/12/28 04:15:10;;;;;;;0.00;0.00;;;5.30;90.30;;;;;;4992909;28;20030;-87
2020/12/28 04:17:37;;;;;;;0.00;0.00;;;5.30;90.30;;;;;;4978688;28;20045;-86
2020/12/28 04:20:03;;;;;;;0.00;0.00;;;5.30;90.30;;;;;;4995899;28;20030;-87
2020/12/28 04:22:29;;;;;;;0.00;0.00;;;5.20;90.30;;;;;;4978957;28;20305;-87
2020/12/28 04:24:56;;;;;;;0.00;0.00;;;5.20;90.30;;;;;;4995123;28;20169;-86
2020/12/28 04:27:22;;;;;;;1.10;0.37;;;5.20;90.30;;;;;;4993140;28;20414;-86
2020/12/28 04:29:48;;;;;;;0.00;0.00;;;5.20;90.30;;;;;;4994867;28;20321;-89
2020/12/28 04:32:15;;;;;;;0.00;0.00;;;5.20;90.30;;;;;;5002600;28;20041;-86
2020/12/28 04:34:41;;;;;;;0.00;0.00;;;5.20;90.30;;;;;;4990097;28;20030;-85
2020/12/28 04:37:08;;;;;;;0.00;0.00;;;5.20;90.20;;;;;;4998620;28;20420;-87
2020/12/28 04:39:34;;;;;;;0.00;0.00;;;5.20;90.20;;;;;;4978549;28;20022;-87
2020/12/28 04:42:00;;;;;;;0.00;0.00;;;5.20;90.20;;;;;;4988259;28;20333;-87
2020/12/28 04:44:27;;;;;;;0.00;0.00;;;5.20;90.20;;;;;;4994913;28;20026;-86
2020/12/28 04:46:54;;;;;;;0.00;0.00;;;5.20;90.10;;;;;;4993723;28;20035;-87
2020/12/28 04:49:20;;;;;;;0.00;0.00;;;5.20;90.10;;;;;;4963201;28;20241;-88
2020/12/28 04:51:47;;;;;;;0.00;0.00;;;5.20;90.10;;;;;;4985707;28;20026;-86
2020/12/28 04:54:13;;;;;;;0.00;0.00;;;5.30;90.00;;;;;;4995178;28;20035;-86
2020/12/28 04:56:39;;;;;;;0.00;0.00;;;5.30;90.00;;;;;;4993014;28;20026;-85
2020/12/28 04:59:05;;;;;;;14.33;0.27;;;5.30;89.90;;;;;;4981407;28;20034;-86
2020/12/28 05:01:32;;;;;;;0.00;0.00;;;5.40;89.80;;;;;;4999652;28;20030;-86
2020/12/28 05:03:58;;;;;;;1.10;0.00;;;5.40;89.70;;;;;;4997132;28;20335;-87
2020/12/28 05:06:24;;;;;;;0.10;0.10;;;5.40;89.60;;;;;;4997770;28;20030;-86
2020/12/28 05:08:51;;;;;;;0.00;0.00;;;5.40;89.60;;;;;;4970902;28;20034;-86
2020/12/28 05:11:17;;;;;;;0.00;0.00;;;5.40;89.60;;;;;;4984294;28;20331;-85
2020/12/28 05:13:50;;;;;;;0.00;0.00;;;5.40;89.60;;;;;;4963246;28;20039;-85
2020/12/28 05:16:17;;;;;;;0.00;0.00;;;5.40;89.80;;;;;;4962985;28;20301;-85
2020/12/28 05:18:51;;;;;;;0.00;0.00;;;5.30;89.50;;;;;;4979896;28;20049;-85
2020/12/28 05:21:26;;;;;;;0.00;0.00;;;5.30;89.60;;;;;;4998732;28;20045;-85
2020/12/28 05:23:53;;;;;;;0.10;0.10;;;5.30;89.70;;;;;;4969482;28;20041;-86
2020/12/28 05:26:22;;;;;;;0.00;0.00;;;5.30;89.80;;;;;;4995894;28;20033;-86
2020/12/28 05:28:55;;;;;;;0.00;0.00;;;5.30;89.90;;;;;;4992788;28;20057;-86
2020/12/28 05:31:22;;;;;;;0.00;0.00;;;5.20;89.90;;;;;;5000879;28;20038;-85
2020/12/28 05:33:48;;;;;;;0.00;0.00;;;5.20;90.00;;;;;;4983781;28;20042;-85
2020/12/28 05:36:15;;;;;;;0.87;0.03;;;5.20;90.00;;;;;;4996912;28;20030;-87
2020/12/28 05:38:43;;;;;;;0.00;0.00;;;5.10;90.00;;;;;;4998320;28;20329;-87
2020/12/28 05:41:10;;;;;;;0.00;0.00;;;5.10;90.00;;;;;;4996712;28;20034;-87
2020/12/28 05:43:36;;;;;;;0.00;0.00;;;5.10;90.00;;;;;;5000976;28;20026;-85
2020/12/28 05:46:03;;;;;;;0.00;0.00;;;5.10;90.00;;;;;;4989850;28;20065;-88
2020/12/28 05:48:29;;;;;;;0.00;0.00;;;5.10;90.10;;;;;;4991964;28;20034;-86
2020/12/28 05:50:56;;;;;;;0.00;0.00;;;5.00;90.10;;;;;;4992920;28;20038;-86
2020/12/28 05:53:26;;;;;;;0.00;0.00;;;5.00;90.10;;;;;;4980723;28;20033;-85
2020/12/28 05:55:53;;;;;;;0.00;0.00;;;5.00;90.10;;;;;;4995292;28;20042;-86
2020/12/28 05:58:20;;;;;;;0.00;0.00;;;5.00;90.10;;;;;;4997933;28;20034;-85
2020/12/28 06:00:48;;;;;;;0.00;0.00;;;5.00;90.10;;;;;;4994895;28;20035;-87
2020/12/28 06:03:23;;;;;;;0.00;0.00;;;4.90;90.10;;;;;;4993601;28;20360;-87
2020/12/28 06:05:52;;;;;;;2.30;0.47;;;4.90;90.10;;;;;;4977358;28;20038;-88
2020/12/28 06:08:19;;;;;;;0.00;0.00;;;4.90;90.10;;;;;;4992662;28;20045;-86
2020/12/28 06:10:45;;;;;;;0.00;0.00;;;4.90;90.10;;;;;;4994070;28;20030;-86
2020/12/28 06:13:33;;;;;;;0.00;0.00;;;4.90;90.10;;;;;;4992660;28;20034;-85
2020/12/28 06:16:01;;;;;;;0.00;0.00;;;4.90;90.10;;;;;;4968924;28;20042;-83
2020/12/28 06:18:27;;;;;;;2.77;0.77;;;4.90;90.10;;;;;;4985853;28;20023;-85
2020/12/28 06:20:54;;;;;;;0.00;0.00;;;4.90;90.10;;;;;;4993687;28;20041;-84
2020/12/28 06:23:27;;;;;;;0.00;0.00;;;4.80;90.00;;;;;;4992755;28;20672;-84
2020/12/28 06:25:54;;;;;;;0.00;0.00;;;4.80;90.10;;;;;;4988909;28;20035;-84
2020/12/28 06:28:25;;;;;;;0.00;0.00;;;4.80;90.10;;;;;;4984976;28;20457;-84
2020/12/28 06:30:52;;;;;;;0.00;0.00;;;4.80;90.10;;;;;;4995094;28;20345;-85
2020/12/28 06:33:18;;;;;;;0.00;0.00;;;4.70;90.10;;;;;;4978621;28;20045;-84
2020/12/28 06:35:45;;;;;;;0.00;0.00;;;4.70;90.40;;;;;;4991585;28;20065;-85
2020/12/28 06:38:11;;;;;;;0.60;0.23;;;4.70;90.10;;;;;;4960506;28;20038;-84
2020/12/28 06:40:39;;;;;;;1.43;0.47;;;4.70;90.10;;;;;;4992651;28;20026;-84
2020/12/28 06:43:16;;;;;;;0.00;0.00;;;4.70;90.10;;;;;;4992556;28;20034;-85
2020/12/28 06:45:44;;;;;;;0.00;0.00;;;4.70;90.10;;;;;;4970728;28;20042;-84
2020/12/28 06:48:20;;;;;;;0.00;0.00;;;4.70;90.10;;;;;;4993266;28;20031;-85
2020/12/28 06:50:47;;;;;;;0.00;0.00;;;4.70;90.10;;;;;;4992518;28;20039;-85
2020/12/28 06:53:19;;;;;;;0.00;0.00;;;4.70;90.10;;;;;;4975262;28;20053;-84
2020/12/28 06:55:46;;;;;;;2.07;0.20;;;4.70;90.10;;;;;;4985986;28;20038;-87
2020/12/28 06:58:15;;;;;;;0.00;0.00;;;4.60;90.10;;;;;;4994735;28;20049;-84
2020/12/28 07:00:41;;;;;;;0.00;0.00;;;4.60;90.20;;;;;;4990636;28;20050;-84
2020/12/28 07:03:15;;;;;;;0.23;0.23;;;4.60;90.20;;;;;;4992427;28;20452;-85
2020/12/28 07:05:41;;;;;;;0.00;0.00;;;4.50;90.30;;;;;;4972503;28;20054;-83
2020/12/28 07:08:08;;;;;;;0.00;0.00;;;4.50;90.30;;;;;;4982294;28;20034;-84
2020/12/28 07:10:34;;;;;;;0.57;0.27;;;4.40;90.30;;;;;;4990920;28;20042;-83
2020/12/28 07:13:04;;;;;;;4.00;0.23;;;4.40;90.30;;;;;;4993048;28;20030;-86
2020/12/28 07:15:31;;;;;;;10.57;0.20;;;4.40;90.40;;;;;;4976865;28;20417;-87
2020/12/28 07:18:07;;;;;;;0.00;0.00;;;4.40;90.40;;;;;;4991811;28;20405;-88
2020/12/28 07:20:33;;;;;;;0.00;0.00;;;4.30;90.30;;;;;;4987388;28;20362;-90
2020/12/28 07:22:59;;;;;;;0.00;0.00;;;4.30;90.40;;;;;;4985965;28;20030;-86
2020/12/28 07:25:26;;;;;;;0.00;0.00;;;4.50;90.20;;;;;;4993170;28;20037;-84
2020/12/28 07:27:53;;;;;;;0.00;0.00;;;4.50;90.00;;;;;;4992217;28;20050;-85
2020/12/28 07:30:20;;;;;;;0.00;0.00;;;4.50;90.00;;;;;;4959842;28;20042;-86
2020/12/28 07:32:46;;;;;;;0.00;0.00;;;4.50;90.10;;;;;;4977160;28;20034;-87
2020/12/28 07:35:12;;;;;;;0.00;0.00;;;4.40;90.10;;;;;;4995607;28;20031;-86
2020/12/28 07:37:40;;;;;;;0.00;0.00;;;4.40;90.10;;;;;;4997743;28;20041;-86
2020/12/28 07:40:06;;;;;;;0.00;0.00;;;4.40;90.10;;;;;;4987459;28;20050;-86
2020/12/28 07:42:33;;;;;;;0.00;0.00;;;4.40;90.10;;;;;;4983319;28;20043;-85
2020/12/28 07:45:00;;;;;;;0.00;0.00;;;4.40;90.10;;;;;;4969140;28;20333;-87
2020/12/28 07:47:30;;;;;;;0.10;0.10;;;4.40;90.10;;;;;;4992603;28;20429;-85
2020/12/28 07:49:57;;;;;;;0.00;0.00;;;4.40;90.10;;;;;;4978846;28;20337;-83
2020/12/28 07:52:27;;;;;;;0.10;0.10;;;4.40;90.00;;;;;;4987286;28;20026;-84
2020/12/28 07:55:16;;;;;;;0.00;0.00;;;4.40;90.00;;;;;;4995878;28;20033;-89
2020/12/28 07:57:48;;;;;;;0.00;0.00;;;4.50;89.90;;;;;;4973673;28;20030;-86
2020/12/28 08:00:16;;;;;;;0.33;0.00;;;4.50;89.90;;;;;;4990855;28;20023;-86
2020/12/28 08:03:01;;;;;;;0.00;0.00;;;4.50;89.70;;;;;;4978826;28;20045;-85
2020/12/28 08:05:27;;;;;;;0.00;0.00;;;4.50;89.70;;;;;;4996384;28;20034;-87
2020/12/28 08:07:54;;;;;;;0.00;0.00;;;4.50;89.60;;;;;;4995431;28;20042;-83
2020/12/28 08:10:20;;;;;;;0.00;0.00;;;4.60;89.60;;;;;;4995436;28;20046;-85
2020/12/28 08:12:51;;;;;;;0.00;0.00;;;4.60;89.40;;;;;;4992410;28;20349;-85
2020/12/28 08:15:30;;;;;;;0.00;0.00;;;4.60;89.20;;;;;;4994145;28;20030;-84
2020/12/28 08:18:10;;;;;;;0.00;0.00;;;4.80;89.20;;;;;;4993319;28;20026;-86
2020/12/28 08:20:40;;;;;;;0.00;0.00;;;4.90;88.90;;;;;;4989911;28;20022;-87
2020/12/28 08:23:06;;;;;;;0.00;0.00;;;5.00;88.70;;;;;;4992602;28;20427;-88
2020/12/28 08:25:33;;;;;;;0.07;0.03;;;5.10;88.30;;;;;;4994995;28;20053;-87
2020/12/28 08:28:00;;;;;;;0.00;0.00;;;5.10;88.10;;;;;;4991956;28;20437;-85
2020/12/28 08:30:30;;;;;;;0.00;0.00;;;5.20;88.00;;;;;;4989489;28;20035;-87
2020/12/28 08:32:59;;;;;;;0.20;0.20;;;5.30;87.90;;;;;;4988085;28;20056;-87
2020/12/28 08:35:26;;;;;;;2.60;0.27;;;5.30;87.80;;;;;;5011955;23;20080;-88
2020/12/28 08:37:53;;;;;;;0.00;0.00;;;5.40;87.60;;;;;;5011633;28;20060;-86
2020/12/28 08:40:23;;;;;;;4.53;0.60;;;5.50;87.50;;;;;;5003181;28;20029;-86
2020/12/28 08:42:56;;;;;;;0.00;0.00;;;5.50;87.30;;;;;;5012455;28;20041;-87
2020/12/28 08:45:24;;;;;;;0.20;0.17;;;5.60;87.30;;;;;;4992837;28;20077;-85
2020/12/28 08:47:55;;;;;;;0.40;0.23;;;5.60;87.30;;;;;;4973066;28;20050;-82
2020/12/28 08:50:22;;;;;;;0.20;0.03;;;5.60;87.30;;;;;;4994326;28;20057;-85
2020/12/28 08:52:54;;;;;;;0.27;0.20;;;5.80;87.30;;;;;;4987818;28;20289;-84
2020/12/28 08:55:20;;;;;;;0.50;0.10;;;6.10;86.50;;;;;;4975573;28;20041;-89
2020/12/28 08:57:54;;;;;;;0.00;0.00;;;6.10;86.10;;;;;;4992443;28;20031;-86
2020/12/28 09:00:24;;;;;;;0.63;0.20;;;6.10;86.30;;;;;;4974146;28;20050;-88
2020/12/28 09:02:59;;;;;;;0.20;0.00;;;6.00;86.50;;;;;;4993283;28;20324;-87
2020/12/28 09:05:29;;;;;;;0.87;0.37;;;6.00;86.70;;;;;;4994363;28;20030;-90
2020/12/28 09:07:55;;;;;;;0.00;0.00;;;5.90;86.80;;;;;;4978365;28;20038;-89
2020/12/28 09:10:22;;;;;;;0.57;0.40;;;5.90;87.00;;;;;;4993827;28;20038;-88
2020/12/28 09:12:48;;;;;;;3.77;0.77;;;5.80;87.20;;;;;;4993259;28;20428;-88
2020/12/28 09:15:15;;;;;;;0.00;0.00;;;5.80;87.30;;;;;;4987763;28;20037;-89
2020/12/28 09:17:41;;;;;;;0.00;0.00;;;5.90;87.40;;;;;;4993902;28;20041;-90
2020/12/28 09:20:08;;;;;;;0.10;0.10;;;5.90;87.40;;;;;;4977432;28;20420;-87
2020/12/28 09:22:34;;;;;;;0.00;0.00;;;6.00;87.40;;;;;;4992262;28;20437;-85
2020/12/28 09:25:01;;;;;;;0.00;0.00;;;5.90;87.30;;;;;;4994279;28;20026;-88
2020/12/28 09:27:27;;;;;;;0.00;0.00;;;6.00;87.30;;;;;;4975687;28;20045;-88
2020/12/28 09:29:54;;;;;;;0.87;0.10;;;6.00;87.30;;;;;;4994051;28;20030;-88
2020/12/28 09:32:20;;;;;;;0.10;0.10;;;6.00;87.20;;;;;;4991480;28;20459;-88
2020/12/28 09:34:47;;;;;;;0.20;0.10;;;6.10;87.30;;;;;;4996091;28;20045;-87
2020/12/28 09:37:13;;;;;;;0.00;0.00;;;6.10;87.20;;;;;;5013392;28;20064;-88
2020/12/28 09:39:39;;;;;;;0.00;0.00;;;6.10;87.20;;;;;;4997583;28;20038;-88
2020/12/28 09:42:06;;;;;;;2.13;0.50;;;6.10;87.20;;;;;;4998513;28;20038;-87
2020/12/28 09:44:32;;;;;;;1.00;0.37;;;6.10;87.30;;;;;;5011016;28;20038;-87
2020/12/28 09:46:59;;;;;;;0.37;0.03;;;6.10;87.30;;;;;;5010504;28;20049;-86
2020/12/28 09:49:25;;;;;;;0.10;0.00;;;6.20;87.30;;;;;;5011518;28;20405;-87
2020/12/28 09:51:54;;;;;;;0.97;0.10;;;6.20;87.20;;;;;;5010971;28;20045;-89
2020/12/28 09:54:21;;;;;;;0.00;0.00;;;6.20;87.10;;;;;;5011173;28;20057;-86
2020/12/28 09:56:48;;;;;;;2.83;0.20;;;6.30;87.10;;;;;;4993889;28;20046;-87
2020/12/28 09:59:14;;;;;;;0.43;0.27;;;6.40;87.00;;;;;;4994204;28;20037;-86
2020/12/28 10:01:44;;;;;;;0.10;0.00;;;6.40;86.80;;;;;;5010916;28;20041;-87
2020/12/28 10:04:11;;;;;;;0.83;0.23;;;6.40;86.70;;;;;;4994568;28;20022;-86
2020/12/28 10:06:38;;;;;;;0.43;0.20;;;6.50;86.60;;;;;;5010810;28;20044;-85
2020/12/28 10:09:05;;;;;;;0.10;0.10;;;6.60;86.50;;;;;;5009918;28;20044;-84
2020/12/28 10:11:32;;;;;;;0.00;0.00;;;6.70;86.30;;;;;;5011230;28;20089;-84
2020/12/28 10:13:58;;;;;;;0.10;0.10;;;6.70;86.30;;;;;;4994803;28;20041;-84
2020/12/28 10:16:25;;;;;;;0.00;0.00;;;6.70;86.30;;;;;;4998680;28;20074;-86
2020/12/28 10:18:55;;;;;;;2.73;0.20;;;6.80;86.20;;;;;;4990020;28;20049;-85
2020/12/28 10:21:22;;;;;;;0.00;0.00;;;6.80;86.10;;;;;;4990563;28;20037;-88
2020/12/28 10:23:48;;;;;;;0.77;0.33;;;6.80;86.10;;;;;;4991808;28;20041;-84
2020/12/28 10:26:19;;;;;;;0.00;0.00;;;6.90;86.20;;;;;;4990570;28;20034;-86
2020/12/28 10:28:46;;;;;;;0.00;0.00;;;6.90;86.20;;;;;;4991377;28;20042;-88
2020/12/28 10:31:12;;;;;;;0.00;0.00;;;6.90;86.30;;;;;;4991771;28;20040;-82
2020/12/28 10:33:39;;;;;;;0.07;0.07;;;6.80;86.30;;;;;;4991465;28;20030;-83
2020/12/28 10:36:06;;;;;;;0.00;0.00;;;6.90;86.40;;;;;;4999228;28;20044;-87
2020/12/28 10:38:32;;;;;;;0.00;0.00;;;6.90;86.40;;;;;;5006051;28;20034;-88
2020/12/28 10:40:59;;;;;;;0.00;0.00;;;7.00;86.40;;;;;;4990497;28;20431;-86
2020/12/28 10:43:25;;;;;;;1.60;0.10;;;7.00;86.30;;;;;;5006434;28;20305;-89
2020/12/28 10:45:52;;;;;;;1.43;0.30;;;7.10;86.20;;;;;;5003963;28;20030;-86
2020/12/28 10:48:18;;;;;;;0.50;0.13;;;7.20;86.00;;;;;;5006729;28;20038;-89
2020/12/28 10:50:44;;;;;;;0.00;0.00;;;7.30;85.90;;;;;;5007058;28;20041;-89
2020/12/28 10:53:11;;;;;;;0.00;0.00;;;7.30;85.80;;;;;;5006691;28;20111;-88
2020/12/28 10:55:37;;;;;;;0.47;0.20;;;7.40;85.80;;;;;;5006311;28;20025;-85
2020/12/28 10:58:30;;;;;;;0.00;0.00;;;7.40;85.80;;;;;;5009825;28;20030;-89
2020/12/28 11:00:56;;;;;;;0.00;0.00;;;7.40;86.50;;;;;;5008921;28;20030;-92
2020/12/28 11:03:29;;;;;;;0.00;0.00;;;7.40;86.00;;;;;;5033181;28;20038;-93
2020/12/28 11:05:55;;;;;;;0.03;0.00;;;7.30;86.10;;;;;;5008430;28;20038;-92
2020/12/28 11:08:21;;;;;;;0.00;0.00;;;7.30;86.30;;;;;;5012997;28;20026;-92
2020/12/28 11:10:48;;;;;;;0.20;0.10;;;7.20;86.50;;;;;;5005798;28;20057;-91
2020/12/28 11:13:14;;;;;;;0.00;0.00;;;7.20;86.60;;;;;;5004584;28;20324;-89
2020/12/28 11:15:41;;;;;;;0.40;0.20;;;7.20;86.80;;;;;;5000232;28;20042;-89
2020/12/28 11:18:07;;;;;;;0.00;0.00;;;7.20;86.80;;;;;;5004686;28;20041;-90
2020/12/28 11:20:33;;;;;;;0.00;0.00;;;7.20;86.90;;;;;;5005241;28;20033;-87
2020/12/28 11:23:00;;;;;;;0.00;0.00;;;7.20;87.00;;;;;;5011080;28;20050;-87
2020/12/28 11:25:26;;;;;;;0.00;0.00;;;7.20;87.10;;;;;;5011034;28;20045;-88
2020/12/28 11:27:53;;;;;;;0.00;0.00;;;7.10;87.10;;;;;;5011728;28;20543;-87
2020/12/28 11:30:19;;;;;;;0.00;0.00;;;7.20;87.10;;;;;;5008147;28;20339;-86
2020/12/28 11:32:45;;;;;;;0.00;0.00;;;7.20;87.10;;;;;;5009886;28;20316;-87
2020/12/28 11:35:12;;;;;;;3.60;0.30;;;7.20;87.10;;;;;;4990382;28;20046;-88
2020/12/28 11:37:38;;;;;;;0.37;0.30;;;7.20;87.20;;;;;;5009234;28;20034;-87
2020/12/28 11:40:04;;;;;;;0.17;0.00;;;7.20;87.20;;;;;;5016036;28;20036;-86
2020/12/28 11:42:31;;;;;;;0.70;0.13;;;7.20;87.20;;;;;;5021876;28;20026;-86
2020/12/28 11:44:58;;;;;;;0.50;0.50;;;7.20;87.20;;;;;;5025350;28;20137;-87
2020/12/28 11:47:24;;;;;;;0.13;0.13;;;7.30;87.10;;;;;;5033469;28;20014;-90
2020/12/28 11:49:51;;;;;;;0.00;0.00;;;7.40;87.10;;;;;;5033237;28;20030;-89
2020/12/28 11:52:19;;;;;;;0.00;0.00;;;7.40;86.90;;;;;;5015059;28;20048;-88
2020/12/28 11:54:46;;;;;;;0.00;0.00;;;7.50;86.80;;;;;;5027261;28;20516;-89
2020/12/28 11:57:12;;;;;;;0.10;0.10;;;7.60;86.70;;;;;;4992422;28;20046;-88
2020/12/28 11:59:39;;;;;;;0.00;0.00;;;7.60;86.50;;;;;;5003588;28;20501;-87
2020/12/28 12:02:05;;;;;;;1.33;0.20;;;7.70;86.40;;;;;;5010365;28;20034;-87
2020/12/28 12:07:18;;;;;;;0.03;0.00;;;7.90;86.10;;;;;;5009310;28;20454;-89
2020/12/28 12:09:44;;;;;;;0.00;0.00;;;7.90;85.80;;;;;;5009211;28;20040;-86
2020/12/28 12:12:13;;;;;;;0.13;0.10;;;8.00;85.80;;;;;;5008318;28;20048;-90
2020/12/28 12:14:39;;;;;;;0.00;0.00;;;8.10;85.70;;;;;;4993376;28;20046;-86
2020/12/28 12:17:06;;;;;;;0.00;0.00;;;8.20;85.50;;;;;;5011089;28;20038;-89
2020/12/28 12:19:32;;;;;;;0.00;0.00;;;8.30;85.20;;;;;;5002145;28;20026;-86
2020/12/28 12:21:59;;;;;;;0.00;0.00;;;8.40;85.00;;;;;;4989460;28;20424;-83
2020/12/28 12:24:25;;;;;;;0.00;0.00;;;8.50;85.00;;;;;;5001455;28;20038;-84
2020/12/28 12:26:51;;;;;;;0.00;0.00;;;8.60;85.00;;;;;;4986085;28;20042;-82
2020/12/28 12:29:18;;;;;;;0.05;0.00;;;8.70;84.70;;;;;;5005342;28;20034;-86
2020/12/28 12:31:44;;;;;;;0.00;0.00;;;9.00;84.20;;;;;;5007667;28;20044;-86
2020/12/28 12:34:13;;;;;;;0.00;0.00;;;9.30;83.60;;;;;;4992646;28;20038;-82
2020/12/28 12:36:39;;;;;;;1.13;0.10;;;9.50;83.10;;;;;;5002194;28;20046;-84
2020/12/28 12:39:06;;;;;;;0.00;0.00;;;9.60;82.60;;;;;;5009492;28;20048;-89
2020/12/28 12:41:32;;;;;;;0.00;0.00;;;9.70;82.30;;;;;;5003081;28;20037;-85
2020/12/28 12:43:58;;;;;;;2.85;0.52;;;9.70;82.30;;;;;;5018675;28;20030;-87
2020/12/28 12:46:25;;;;;;;0.00;0.00;;;9.80;82.50;;;;;;5006432;28;20037;-87
2020/12/28 12:48:51;;;;;;;0.00;0.00;;;9.80;82.40;;;;;;5029806;28;20045;-90
2020/12/28 12:51:19;;;;;;;0.00;0.00;;;9.90;82.20;;;;;;5040345;28;20029;-90
2020/12/28 12:53:46;;;;;;;0.00;0.00;;;10.00;82.00;;;;;;5039207;28;20043;-88
2020/12/28 12:56:13;;;;;;;0.00;0.00;;;10.00;82.00;;;;;;5034341;28;20099;-85
2020/12/28 12:58:39;;;;;;;0.00;0.00;;;10.00;81.90;;;;;;5035118;28;20026;-90
2020/12/28 13:01:10;;;;;;;0.00;0.00;;;10.00;81.60;;;;;;4995108;28;20037;-90